Romoe Maersk — OXLC2 — position and weather

sailwx.info

Track history (hours):
 
Tides and Currents Weather Stations Pressure Air Temp Water Temp Dewpoint Dewpoint Depression Visibility Wind Speed Wind Dir Waves Ship Positions

Romoe Maersk

Last reported at 2014-Oct-01 12:32 UTC. Time now 2014-Oct-01 20:18 UTC.
Position N 56°22' E 007°09'.

Length 171 m; draft 11.8 m.

Type: Ship. MMSI: 220209000.

Date/timePositionNaut miles runAvg speedWind from/ knotsBaromVisibWave heightAir tempDewpointWater temp
2014-Oct-01 12:32N 56°22' E 007°09'1211.6
2014-Oct-01 11:32N 56°12' E 006°59'10811.7
2014-Oct-01 02:15N 54°38' E 005°22'811.7
2014-Oct-01 01:33N 54°31' E 005°15'1211.7
2014-Oct-01 00:33N 54°21' E 005°05'1211.8
2014-Sep-30 23:33N 54°11' E 004°56'1211.7
2014-Sep-30 22:33N 54°01' E 004°45'1212.0
2014-Sep-30 21:33N 53°52' E 004°31'1211.9
2014-Sep-30 20:33N 53°44' E 004°16'10110.9
2014-Sep-30 11:18N 52°19' E 002°48'3910.5
2014-Sep-30 07:33N 51°41' E 002°29'1212.3
2014-Sep-30 06:34N 51°31' E 002°17'1312.8
2014-Sep-30 05:33N 51°20' E 002°08'1212.3
2014-Sep-30 04:34N 51°11' E 001°54'5613.1
2014-Sep-30 00:20N 50°29' E 000°57'1613.1
2014-Sep-29 23:05N 50°24' E 000°32'  
2014-Sep-26 11:27N 38°22' W 009°51'1010.9
2014-Sep-26 10:33N 38°12' W 009°48'1111.4
2014-Sep-26 09:33N 38°01' W 009°45'1111.2
2014-Sep-26 08:33N 37°50' W 009°41'1111.1
2014-Sep-26 07:33N 37°40' W 009°38'1111.2
2014-Sep-26 06:33N 37°29' W 009°35'1111.3
2014-Sep-26 05:33N 37°18' W 009°32'1110.9
2014-Sep-26 04:33N 37°07' W 009°29'3110.4
2014-Sep-26 01:33N 36°40' W 009°09'1110.7
2014-Sep-26 00:33N 36°38' W 008°56'1111.0
2014-Sep-25 23:33N 36°35' W 008°43'1111.0
2014-Sep-25 22:33N 36°33' W 008°29'1111.0
2014-Sep-25 21:33N 36°30' W 008°16'1111.1
2014-Sep-25 20:33N 36°28' W 008°03'  
2014-Sep-22 19:18N 38°28' E 007°42'5511.6
2014-Sep-22 14:33N 38°45' E 008°49'1111.2
2014-Sep-22 13:32N 38°52' E 009°00'1110.5
2014-Sep-22 12:32N 39°01' E 009°06'4 3.6
2014-Sep-22 11:32N 39°04' E 009°03'0 0.0
2014-Sep-22 10:32N 39°04' E 009°03'0 0.0
2014-Sep-22 09:32N 39°04' E 009°03'0 0.0
2014-Sep-22 08:32N 39°04' E 009°03'0 0.0
2014-Sep-22 07:29N 39°04' E 009°03'0 0.0
2014-Sep-22 06:32N 39°04' E 009°03'0 0.0
2014-Sep-22 05:32N 39°04' E 009°03'0 0.0
2014-Sep-22 04:32N 39°04' E 009°03'0 0.0
2014-Sep-22 03:32N 39°04' E 009°03'0 0.0
2014-Sep-22 02:32N 39°04' E 009°03'0 0.0
2014-Sep-22 01:32N 39°04' E 009°03'0 0.1
2014-Sep-22 00:32N 39°05' E 009°03'0 0.0
2014-Sep-21 23:32N 39°05' E 009°03'0 0.1
2014-Sep-21 22:32N 39°04' E 009°03'0 0.1
2014-Sep-21 21:32N 39°04' E 009°03'0 0.0
2014-Sep-21 20:29N 39°04' E 009°03'0 0.1
2014-Sep-21 19:32N 39°05' E 009°03'1 1.1
2014-Sep-21 18:32N 39°05' E 009°02'0 0.0
2014-Sep-21 17:32N 39°05' E 009°02'0 0.0
2014-Sep-21 16:32N 39°05' E 009°02'0 0.0
2014-Sep-21 15:32N 39°05' E 009°02'0 0.0
2014-Sep-21 14:32N 39°05' E 009°02'0 0.0
2014-Sep-21 13:32N 39°05' E 009°02'  
Track history (hours):
 
Tides and Currents Weather Stations Pressure Air Temp Water Temp Dewpoint Dewpoint Depression Visibility Wind Speed Wind Dir Waves Ship Positions

Romoe Maersk

Last reported at 2014-Oct-01 12:32 UTC. Time now 2014-Oct-01 20:18 UTC.
Position N 56°22' E 007°09'.

Length 171 m; draft 11.8 m.

Type: Ship. MMSI: 220209000.

Date/timePositionNaut miles runAvg speedWind from/ knotsBaromVisibWave heightAir tempDewpointWater temp
2014-Oct-01 12:32N 56°22' E 007°09'1211.6
2014-Oct-01 11:32N 56°12' E 006°59'10811.7
2014-Oct-01 02:15N 54°38' E 005°22'811.7
2014-Oct-01 01:33N 54°31' E 005°15'1211.7
2014-Oct-01 00:33N 54°21' E 005°05'1211.8
2014-Sep-30 23:33N 54°11' E 004°56'1211.7
2014-Sep-30 22:33N 54°01' E 004°45'1212.0
2014-Sep-30 21:33N 53°52' E 004°31'1211.9
2014-Sep-30 20:33N 53°44' E 004°16'10110.9
2014-Sep-30 11:18N 52°19' E 002°48'3910.5
2014-Sep-30 07:33N 51°41' E 002°29'1212.3
2014-Sep-30 06:34N 51°31' E 002°17'1312.8
2014-Sep-30 05:33N 51°20' E 002°08'1212.3
2014-Sep-30 04:34N 51°11' E 001°54'5613.1
2014-Sep-30 00:20N 50°29' E 000°57'1613.1
2014-Sep-29 23:05N 50°24' E 000°32'  
2014-Sep-26 11:27N 38°22' W 009°51'1010.9
2014-Sep-26 10:33N 38°12' W 009°48'1111.4
2014-Sep-26 09:33N 38°01' W 009°45'1111.2
2014-Sep-26 08:33N 37°50' W 009°41'1111.1
2014-Sep-26 07:33N 37°40' W 009°38'1111.2
2014-Sep-26 06:33N 37°29' W 009°35'1111.3
2014-Sep-26 05:33N 37°18' W 009°32'1110.9
2014-Sep-26 04:33N 37°07' W 009°29'3110.4
2014-Sep-26 01:33N 36°40' W 009°09'1110.7
2014-Sep-26 00:33N 36°38' W 008°56'1111.0
2014-Sep-25 23:33N 36°35' W 008°43'1111.0
2014-Sep-25 22:33N 36°33' W 008°29'1111.0
2014-Sep-25 21:33N 36°30' W 008°16'1111.1
2014-Sep-25 20:33N 36°28' W 008°03'  
2014-Sep-22 19:18N 38°28' E 007°42'5511.6
2014-Sep-22 14:33N 38°45' E 008°49'1111.2
2014-Sep-22 13:32N 38°52' E 009°00'1110.5
2014-Sep-22 12:32N 39°01' E 009°06'4 3.6
2014-Sep-22 11:32N 39°04' E 009°03'0 0.0
2014-Sep-22 10:32N 39°04' E 009°03'0 0.0
2014-Sep-22 09:32N 39°04' E 009°03'0 0.0
2014-Sep-22 08:32N 39°04' E 009°03'0 0.0
2014-Sep-22 07:29N 39°04' E 009°03'0 0.0
2014-Sep-22 06:32N 39°04' E 009°03'0 0.0
2014-Sep-22 05:32N 39°04' E 009°03'0 0.0
2014-Sep-22 04:32N 39°04' E 009°03'0 0.0
2014-Sep-22 03:32N 39°04' E 009°03'0 0.0
2014-Sep-22 02:32N 39°04' E 009°03'0 0.0
2014-Sep-22 01:32N 39°04' E 009°03'0 0.1
2014-Sep-22 00:32N 39°05' E 009°03'0 0.0
2014-Sep-21 23:32N 39°05' E 009°03'0 0.1
2014-Sep-21 22:32N 39°04' E 009°03'0 0.1
2014-Sep-21 21:32N 39°04' E 009°03'0 0.0
2014-Sep-21 20:29N 39°04' E 009°03'0 0.1
2014-Sep-21 19:32N 39°05' E 009°03'1 1.1
2014-Sep-21 18:32N 39°05' E 009°02'0 0.0
2014-Sep-21 17:32N 39°05' E 009°02'0 0.0
2014-Sep-21 16:32N 39°05' E 009°02'0 0.0
2014-Sep-21 15:32N 39°05' E 009°02'0 0.0
2014-Sep-21 14:32N 39°05' E 009°02'0 0.0
2014-Sep-21 13:32N 39°05' E 009°02'  

Dump ship's entire track history